createdAt,value
2024-04-09T00:00:39.403Z,45.4
2024-04-09T00:10:39.367Z,45.6
2024-04-09T00:30:39.295Z,44.8
2024-04-09T00:40:39.261Z,46.8
2024-04-09T00:50:39.210Z,48
2024-04-09T01:00:39.206Z,48.6
2024-04-09T01:20:39.133Z,59.4
2024-04-09T01:30:39.091Z,62.4
2024-04-09T01:40:39.055Z,64.8
2024-04-09T01:50:39.039Z,66.6
2024-04-09T02:00:38.988Z,68.2
2024-04-09T02:10:38.950Z,69.8
2024-04-09T02:20:38.937Z,71
2024-04-09T02:30:38.878Z,72
2024-04-09T02:40:38.847Z,72.8
2024-04-09T02:50:38.814Z,73.4
2024-04-09T03:00:38.791Z,74
2024-04-09T03:10:38.762Z,74.4
2024-04-09T03:20:38.715Z,75.2
2024-04-09T03:30:38.695Z,76
2024-04-09T03:40:38.649Z,76.4
2024-04-09T03:50:38.622Z,79.8
2024-04-09T04:00:38.586Z,81.6
2024-04-09T04:10:38.545Z,83.2
2024-04-09T04:20:38.523Z,85.2
2024-04-09T04:30:38.473Z,87.2
2024-04-09T04:40:38.460Z,88.6
2024-04-09T04:50:38.430Z,90
2024-04-09T05:00:38.378Z,91
2024-04-09T05:10:38.366Z,91.6
2024-04-09T05:20:38.323Z,91.6
2024-04-09T05:30:38.320Z,89.6
2024-04-09T05:40:38.270Z,90.4
2024-04-09T05:50:38.219Z,90.4
2024-04-09T06:00:38.205Z,90.8
2024-04-09T06:10:38.150Z,88.6
2024-04-09T06:20:38.134Z,87.2
2024-04-09T06:30:38.111Z,85.8
2024-04-09T06:40:38.066Z,85.8
2024-04-09T06:50:38.038Z,85.8
2024-04-09T07:00:38.004Z,86.2
2024-04-09T07:10:37.979Z,86
2024-04-09T07:20:37.954Z,86.6
2024-04-09T07:30:37.905Z,87.6
2024-04-09T07:40:37.873Z,88.4
2024-04-09T07:50:37.857Z,89.4
2024-04-09T08:00:37.813Z,91.6
2024-04-09T08:10:37.791Z,91.8
2024-04-09T08:20:37.765Z,92.2
2024-04-09T08:30:37.720Z,91.8
2024-04-09T08:40:37.687Z,91
2024-04-09T08:50:37.713Z,90.6
2024-04-09T09:00:37.638Z,91.8
2024-04-09T09:10:37.602Z,89.8
2024-04-09T09:20:37.571Z,85.6
2024-04-09T09:30:37.533Z,84
2024-04-09T09:40:37.567Z,87.2
2024-04-09T09:50:37.495Z,88.2
2024-04-09T10:00:37.531Z,86.8
2024-04-09T10:10:37.509Z,87
2024-04-09T10:20:37.517Z,78.8
2024-04-09T10:30:37.360Z,70.8
2024-04-09T10:40:37.410Z,70.8
2024-04-09T10:50:37.301Z,69
2024-04-09T11:00:37.261Z,67.8
2024-04-09T11:10:37.235Z,67
2024-04-09T11:20:37.204Z,65.8
2024-04-09T11:30:37.147Z,62.8
2024-04-09T11:40:37.132Z,62.4
2024-04-09T11:50:37.100Z,61.6
2024-04-09T12:00:37.072Z,60.2
2024-04-09T12:10:37.038Z,59.2
2024-04-09T12:20:36.999Z,58.6
2024-04-09T12:30:36.971Z,59.4
2024-04-09T12:40:36.931Z,56.8
2024-04-09T12:50:36.902Z,55.8
2024-04-09T13:00:36.882Z,54.6
2024-04-09T13:10:36.916Z,53.8
2024-04-09T13:20:37.077Z,52.2
2024-04-09T13:30:37.166Z,51.8
2024-04-09T13:40:36.745Z,50.4
2024-04-09T13:50:36.695Z,51
2024-04-09T14:00:36.664Z,50.6
2024-04-09T14:10:36.645Z,51.2
2024-04-09T14:20:36.593Z,51.2
2024-04-09T14:30:36.576Z,51.8
2024-04-09T14:40:36.549Z,50.8
2024-04-09T14:50:36.512Z,51
2024-04-09T15:00:36.485Z,50.4
2024-04-09T15:10:36.462Z,51.4
2024-04-09T15:20:36.408Z,52
2024-04-09T15:30:36.380Z,53
2024-04-09T15:40:36.344Z,53.2
2024-04-09T15:50:36.311Z,54
2024-04-09T16:00:36.299Z,54.6
2024-04-09T16:10:36.239Z,55.2
2024-04-09T16:20:36.221Z,55.6
2024-04-09T16:30:36.185Z,55.2
2024-04-09T16:40:36.208Z,55
2024-04-09T16:50:36.127Z,55
2024-04-09T17:00:36.107Z,55.6
2024-04-09T17:10:36.052Z,56.4
2024-04-09T17:20:36.024Z,56.8
2024-04-09T17:30:36.000Z,57.6
2024-04-09T17:40:35.980Z,58
2024-04-09T17:50:35.930Z,58.6
2024-04-09T18:00:35.885Z,59.2
2024-04-09T18:10:35.861Z,61.4
2024-04-09T18:20:35.839Z,63.6
2024-04-09T18:30:35.815Z,64.2
2024-04-09T18:40:35.779Z,62.4
2024-04-09T18:50:35.739Z,63.8
2024-04-09T19:00:35.715Z,65.4
2024-04-09T19:10:35.681Z,67
2024-04-09T19:20:35.659Z,68
2024-04-09T19:30:35.627Z,68.2
2024-04-09T19:40:35.574Z,73.6
2024-04-09T19:50:35.562Z,77.6
2024-04-09T20:00:35.526Z,77.6
2024-04-09T20:10:35.798Z,78.2
2024-04-09T20:20:35.773Z,78
2024-04-09T20:30:35.695Z,78.4
2024-04-09T20:40:35.420Z,78.8
2024-04-09T20:50:35.595Z,78.2
2024-04-09T21:00:35.576Z,78.4
2024-04-09T21:10:35.764Z,78.4
2024-04-09T21:20:35.529Z,77.4
2024-04-09T21:30:35.605Z,77.2
2024-04-09T21:40:35.628Z,76.4
2024-04-09T21:50:35.553Z,75.8
2024-04-09T22:00:35.228Z,75.6
2024-04-09T22:10:35.228Z,75.4
2024-04-09T22:20:35.401Z,75.2
2024-04-09T22:30:35.209Z,75.4
2024-04-09T22:40:35.459Z,75.4
2024-04-09T22:50:35.317Z,75.4
2024-04-09T23:00:35.285Z,75.8
2024-04-09T23:10:35.274Z,75.8
2024-04-09T23:20:35.210Z,76.2
2024-04-09T23:30:35.029Z,76
2024-04-09T23:40:34.877Z,76
2024-04-09T23:50:35.138Z,76.2
